createdAt,value
2018-06-19T00:00:02.508Z,99305.00
2018-06-19T00:02:31.653Z,99312.00
2018-06-19T00:05:01.004Z,99311.00
2018-06-19T00:07:30.100Z,99311.00
2018-06-19T00:09:59.301Z,99308.00
2018-06-19T00:12:28.673Z,99306.00
2018-06-19T00:14:57.715Z,99308.00
2018-06-19T00:17:26.912Z,99313.00
2018-06-19T00:19:56.424Z,99314.00
2018-06-19T00:22:25.854Z,99311.00
2018-06-19T00:24:54.948Z,99312.00
2018-06-19T00:27:24.320Z,99306.00
2018-06-19T00:29:53.418Z,99313.00
2018-06-19T00:32:22.532Z,99310.00
2018-06-19T00:34:51.936Z,99315.00
2018-06-19T00:37:21.040Z,99318.00
2018-06-19T00:39:50.184Z,99321.00
2018-06-19T00:42:19.592Z,99317.00
2018-06-19T00:44:48.720Z,99325.00
2018-06-19T00:47:17.934Z,99324.00
2018-06-19T00:49:47.180Z,99321.00
2018-06-19T00:52:16.319Z,99323.00
2018-06-19T00:54:45.422Z,99326.00
2018-06-19T00:57:14.773Z,99329.00
2018-06-19T00:59:43.985Z,99331.00
2018-06-19T01:02:13.097Z,99335.00
2018-06-19T01:04:42.964Z,99330.00
2018-06-19T01:07:12.101Z,99329.00
2018-06-19T01:09:41.224Z,99327.00
2018-06-19T01:12:10.781Z,99329.00
2018-06-19T01:14:39.900Z,99331.00
2018-06-19T01:17:08.980Z,99339.00
2018-06-19T01:19:38.372Z,99339.00
2018-06-19T01:22:07.485Z,99334.00
2018-06-19T01:24:36.681Z,99341.00
2018-06-19T01:27:06.224Z,99342.00
2018-06-19T01:29:35.322Z,99338.00
2018-06-19T01:32:04.454Z,99346.00
2018-06-19T01:34:33.584Z,99342.00
2018-06-19T01:37:02.908Z,99344.00
2018-06-19T01:39:32.009Z,99345.00
2018-06-19T01:42:01.112Z,99340.00
2018-06-19T01:44:30.238Z,99343.00
2018-06-19T01:46:59.368Z,99336.00
2018-06-19T01:49:28.760Z,99340.00
2018-06-19T01:51:57.895Z,99338.00
2018-06-19T01:54:27.004Z,99342.00
2018-06-19T01:56:56.104Z,99341.00
2018-06-19T01:59:25.232Z,99339.00
2018-06-19T02:01:54.688Z,99336.00
2018-06-19T02:04:23.752Z,99336.00
2018-06-19T02:06:52.929Z,99332.00
2018-06-19T02:09:22.044Z,99332.00
2018-06-19T02:11:51.481Z,99330.00
2018-06-19T02:14:20.644Z,99332.00
2018-06-19T02:16:49.816Z,99336.00
2018-06-19T02:19:19.164Z,99335.00
2018-06-19T02:21:48.240Z,99333.00
2018-06-19T02:24:17.336Z,99328.00
2018-06-19T02:26:46.684Z,99339.00
2018-06-19T02:29:15.868Z,99344.00
2018-06-19T02:31:45.011Z,99346.00
2018-06-19T02:34:14.272Z,99342.00
2018-06-19T02:36:43.413Z,99348.00
2018-06-19T02:39:12.911Z,99350.00
2018-06-19T02:41:41.956Z,99349.00
2018-06-19T02:44:11.041Z,99348.00
2018-06-19T02:46:40.146Z,99354.00
2018-06-19T02:49:09.260Z,99352.00
2018-06-19T02:51:38.560Z,99350.00
2018-06-19T02:54:07.919Z,99358.00
2018-06-19T02:56:37.144Z,99363.00
2018-06-19T02:59:06.296Z,99358.00
2018-06-19T03:01:35.404Z,99359.00
2018-06-19T03:04:05.097Z,99359.00
2018-06-19T03:06:34.226Z,99364.00
2018-06-19T03:09:03.396Z,99365.00
2018-06-19T03:11:32.536Z,99361.00
2018-06-19T03:14:02.232Z,99364.00
2018-06-19T03:16:31.444Z,99360.00
2018-06-19T03:19:00.907Z,99361.00
2018-06-19T03:21:30.208Z,99361.00
2018-06-19T03:23:59.448Z,99370.00
2018-06-19T03:26:28.564Z,99371.00
2018-06-19T03:28:57.752Z,99370.00
2018-06-19T03:31:26.933Z,99369.00
2018-06-19T03:33:56.100Z,99373.00
2018-06-19T03:36:25.196Z,99373.00
2018-06-19T03:38:54.320Z,99376.00
2018-06-19T03:41:23.666Z,99375.00
2018-06-19T03:43:52.892Z,99375.00
2018-06-19T03:46:22.024Z,99378.00
2018-06-19T03:48:51.152Z,99383.00
2018-06-19T03:51:20.297Z,99384.00
2018-06-19T03:53:49.500Z,99383.00
2018-06-19T03:56:18.620Z,99388.00
2018-06-19T03:58:47.748Z,99388.00
2018-06-19T04:01:16.993Z,99390.00
2018-06-19T04:03:46.273Z,99386.00
2018-06-19T04:06:15.805Z,99390.00
2018-06-19T04:08:44.920Z,99392.00
2018-06-19T04:11:14.302Z,99390.00
2018-06-19T04:13:43.388Z,99394.00
2018-06-19T04:16:12.512Z,99394.00
2018-06-19T04:18:41.708Z,99399.00
2018-06-19T04:21:10.889Z,99392.00
2018-06-19T04:23:40.085Z,99394.00
2018-06-19T04:26:09.461Z,99392.00
2018-06-19T04:28:38.584Z,99384.00
2018-06-19T04:31:07.888Z,99383.00
2018-06-19T04:33:37.485Z,99399.00
2018-06-19T04:36:06.637Z,99401.00
2018-06-19T04:38:35.784Z,99399.00
2018-06-19T04:41:05.852Z,99399.00
2018-06-19T04:43:35.328Z,99397.00
2018-06-19T04:46:04.586Z,99397.00
2018-06-19T04:48:33.957Z,99397.00
2018-06-19T04:51:03.056Z,99397.00
2018-06-19T04:53:32.272Z,99400.00
2018-06-19T04:56:01.605Z,99399.00
2018-06-19T04:58:30.708Z,99404.00
2018-06-19T05:00:59.844Z,99406.00
2018-06-19T05:03:29.196Z,99413.00
2018-06-19T05:05:59.193Z,99409.00
2018-06-19T05:08:28.360Z,99406.00
2018-06-19T05:10:57.468Z,99417.00
2018-06-19T05:13:26.853Z,99411.00
2018-06-19T05:15:55.964Z,99408.00
2018-06-19T05:18:25.208Z,99406.00
2018-06-19T05:20:55.280Z,99402.00
2018-06-19T05:23:24.387Z,99409.00
2018-06-19T05:25:54.404Z,99414.00
2018-06-19T05:28:23.504Z,99414.00
2018-06-19T05:30:53.365Z,99417.00
2018-06-19T05:33:23.238Z,99422.00
2018-06-19T05:35:53.389Z,99423.00
2018-06-19T05:38:23.189Z,99430.00
2018-06-19T05:40:53.148Z,99430.00
2018-06-19T05:43:22.900Z,99429.00
2018-06-19T05:45:52.808Z,99432.00
2018-06-19T05:48:22.660Z,99434.00
2018-06-19T05:50:52.581Z,99441.00
2018-06-19T05:53:22.414Z,99431.00
2018-06-19T05:55:52.340Z,99440.00
2018-06-19T05:58:22.376Z,99444.00
2018-06-19T06:00:52.417Z,99444.00
2018-06-19T06:03:23.444Z,99442.00
2018-06-19T06:05:54.804Z,99444.00
2018-06-19T06:08:24.615Z,99444.00
2018-06-19T06:10:54.581Z,99450.00
2018-06-19T06:13:24.325Z,99449.00
2018-06-19T06:15:54.115Z,99447.00
2018-06-19T06:18:23.216Z,99450.00
2018-06-19T06:20:53.070Z,99445.00
2018-06-19T06:23:23.001Z,99449.00
2018-06-19T06:25:53.154Z,99450.00
2018-06-19T06:28:23.044Z,99442.00
2018-06-19T06:30:52.894Z,99440.00
2018-06-19T06:33:22.848Z,99442.00
2018-06-19T06:35:52.884Z,99441.00
2018-06-19T06:38:22.729Z,99443.00
2018-06-19T06:40:52.850Z,99444.00
2018-06-19T06:43:23.092Z,99446.00
2018-06-19T06:45:52.933Z,99446.00
2018-06-19T06:48:22.856Z,99443.00
2018-06-19T06:50:52.545Z,99444.00
2018-06-19T06:53:22.444Z,99438.00
2018-06-19T06:55:52.448Z,99437.00
2018-06-19T06:58:21.526Z,99434.00
2018-06-19T07:00:51.312Z,99438.00
2018-06-19T07:03:21.872Z,99439.00
2018-06-19T07:05:52.224Z,99443.00
2018-06-19T07:08:22.827Z,99440.00
2018-06-19T07:10:52.851Z,99441.00
2018-06-19T07:13:22.549Z,99439.00
2018-06-19T07:15:52.270Z,99434.00
2018-06-19T07:18:22.246Z,99440.00
2018-06-19T07:20:52.045Z,99443.00
2018-06-19T07:23:22.409Z,99438.00
2018-06-19T07:25:52.351Z,99440.00
2018-06-19T07:28:22.316Z,99430.00
2018-06-19T07:30:52.330Z,99425.00
2018-06-19T07:33:22.196Z,99429.00
2018-06-19T07:35:51.941Z,99423.00
2018-06-19T07:38:21.184Z,99422.00
2018-06-19T07:40:50.953Z,99418.00
2018-06-19T07:43:21.584Z,99416.00
2018-06-19T07:45:51.492Z,99406.00
2018-06-19T07:48:21.418Z,99397.00
2018-06-19T07:50:50.640Z,99397.00
2018-06-19T07:53:20.553Z,99399.00
2018-06-19T07:55:50.365Z,99403.00
2018-06-19T07:58:21.264Z,99407.00
2018-06-19T08:00:51.268Z,99400.00
2018-06-19T08:03:21.256Z,99408.00
2018-06-19T08:05:51.167Z,99413.00
2018-06-19T08:08:20.888Z,99410.00
2018-06-19T08:10:50.003Z,99411.00
2018-06-19T08:13:19.916Z,99411.00
2018-06-19T08:15:50.119Z,99403.00
2018-06-19T08:18:20.109Z,99393.00
2018-06-19T08:20:50.169Z,99401.00
2018-06-19T08:23:20.020Z,99391.00
2018-06-19T08:25:49.312Z,99402.00
2018-06-19T08:28:18.913Z,99402.00
2018-06-19T08:30:49.037Z,99387.00
2018-06-19T08:33:18.305Z,99399.00
2018-06-19T08:35:48.765Z,99401.00
2018-06-19T08:38:18.556Z,99405.00
2018-06-19T08:40:47.709Z,99408.00
2018-06-19T08:43:18.325Z,99397.00
2018-06-19T08:45:48.693Z,99384.00
2018-06-19T08:48:18.740Z,99383.00
2018-06-19T08:50:48.794Z,99383.00
2018-06-19T08:53:18.892Z,99378.00
2018-06-19T08:55:48.031Z,99388.00
2018-06-19T08:58:18.300Z,99389.00
2018-06-19T09:00:48.226Z,99393.00
2018-06-19T09:03:17.873Z,99394.00
2018-06-19T09:05:47.716Z,99402.00
2018-06-19T09:08:18.168Z,99402.00
2018-06-19T09:10:47.635Z,99405.00
2018-06-19T09:13:17.468Z,99402.00
2018-06-19T09:15:46.657Z,99405.00
2018-06-19T09:18:16.611Z,99398.00
2018-06-19T09:20:46.512Z,99391.00
2018-06-19T09:23:17.024Z,99388.00
2018-06-19T09:25:47.061Z,99376.00
2018-06-19T09:28:18.382Z,99381.00
2018-06-19T09:30:48.435Z,99387.00
2018-06-19T09:33:18.800Z,99384.00
2018-06-19T09:35:48.896Z,99383.00
2018-06-19T09:54:24.754Z,99383.00
2018-06-19T09:56:55.552Z,99384.00
2018-06-19T09:59:25.524Z,99379.00
2018-06-19T10:01:55.523Z,99379.00
2018-06-19T10:04:25.616Z,99379.00
2018-06-19T10:06:54.813Z,99377.00
2018-06-19T10:09:24.704Z,99376.00
2018-06-19T10:11:54.559Z,99378.00
2018-06-19T10:14:24.425Z,99370.00
2018-06-19T10:16:54.245Z,99380.00
2018-06-19T10:19:23.570Z,99376.00
2018-06-19T10:21:53.537Z,99381.00
2018-06-19T10:24:23.600Z,99382.00
2018-06-19T10:26:53.824Z,99381.00
2018-06-19T10:29:23.841Z,99380.00
2018-06-19T10:31:53.875Z,99378.00
2018-06-19T10:34:23.950Z,99383.00
2018-06-19T10:36:53.660Z,99384.00
2018-06-19T10:39:23.582Z,99386.00
2018-06-19T10:41:53.888Z,99388.00
2018-06-19T10:44:23.870Z,99390.00
2018-06-19T10:46:54.589Z,99388.00
2018-06-19T10:49:24.574Z,99392.00
2018-06-19T10:51:54.866Z,99397.00
2018-06-19T10:54:24.819Z,99397.00
2018-06-19T10:56:55.877Z,99393.00
2018-06-19T10:59:25.996Z,99397.00
2018-06-19T11:01:56.826Z,99394.00
2018-06-19T11:04:27.464Z,99394.00
2018-06-19T11:06:57.680Z,99391.00
2018-06-19T11:09:27.576Z,99390.00
2018-06-19T11:11:58.099Z,99398.00
2018-06-19T11:14:28.113Z,99397.00
2018-06-19T11:16:57.968Z,99398.00
2018-06-19T11:19:28.025Z,99401.00
2018-06-19T11:21:59.021Z,99397.00
2018-06-19T11:24:29.234Z,99394.00
2018-06-19T11:26:59.348Z,99393.00
2018-06-19T11:29:29.365Z,99385.00
2018-06-19T11:31:59.384Z,99383.00
2018-06-19T11:34:29.533Z,99378.00
2018-06-19T11:36:59.316Z,99378.00
2018-06-19T11:39:29.232Z,99373.00
2018-06-19T11:41:59.116Z,99369.00
2018-06-19T11:44:29.067Z,99373.00
2018-06-19T11:47:00.089Z,99371.00
2018-06-19T11:49:31.407Z,99372.00
2018-06-19T11:52:01.230Z,99367.00
2018-06-19T11:54:31.393Z,99360.00
2018-06-19T11:57:01.403Z,99367.00
2018-06-19T11:59:32.404Z,99368.00
2018-06-19T12:02:03.132Z,99374.00
2018-06-19T12:04:32.500Z,99375.00
2018-06-19T12:07:03.026Z,99371.00
2018-06-19T12:09:36.075Z,99362.00
2018-06-19T12:12:06.639Z,99364.00
2018-06-19T12:14:38.300Z,99364.00
2018-06-19T12:17:09.242Z,99370.00
2018-06-19T12:19:40.035Z,99369.00
2018-06-19T12:22:10.391Z,99367.00
2018-06-19T12:24:41.580Z,99378.00
2018-06-19T12:27:15.166Z,99375.00
2018-06-19T12:29:47.699Z,99365.00
2018-06-19T12:32:18.170Z,99361.00
2018-06-19T12:34:50.006Z,99366.00
2018-06-19T12:37:25.382Z,99365.00
2018-06-19T12:39:55.755Z,99374.00
2018-06-19T12:42:26.866Z,99371.00
2018-06-19T12:44:57.486Z,99377.00
2018-06-19T12:47:29.248Z,99373.00
2018-06-19T12:50:49.905Z,99376.00
2018-06-19T12:53:36.959Z,99375.00
2018-06-19T12:56:17.356Z,99379.00
2018-06-19T12:58:48.635Z,99377.00
2018-06-19T13:01:20.005Z,99377.00
2018-06-19T13:06:12.228Z,99379.00
2018-06-19T13:08:42.483Z,99364.00
2018-06-19T13:11:12.856Z,99367.00
2018-06-19T13:14:52.904Z,99360.00
2018-06-19T13:17:39.912Z,99358.00
2018-06-19T13:20:27.046Z,99361.00
2018-06-19T13:22:56.809Z,99355.00
2018-06-19T13:25:26.342Z,99344.00
2018-06-19T13:27:55.978Z,99336.00
2018-06-19T13:30:42.852Z,99340.00
2018-06-19T13:33:12.080Z,99347.00
2018-06-19T13:35:43.411Z,99346.00
2018-06-19T13:38:13.806Z,99342.00
2018-06-19T13:41:12.773Z,99345.00
2018-06-19T13:44:02.286Z,99340.00
2018-06-19T13:46:32.303Z,99339.00
2018-06-19T13:49:01.408Z,99340.00
2018-06-19T13:51:31.670Z,99337.00
2018-06-19T13:54:02.909Z,99337.00
2018-06-19T13:57:46.837Z,99332.00
2018-06-19T14:00:18.881Z,99332.00
2018-06-19T14:02:48.971Z,99332.00
2018-06-19T14:05:20.606Z,99331.00
2018-06-19T14:08:14.522Z,99333.00
2018-06-19T14:11:00.972Z,99338.00
2018-06-19T14:13:32.045Z,99326.00
2018-06-19T14:16:02.906Z,99328.00
2018-06-19T14:18:33.489Z,99328.00
2018-06-19T14:21:03.131Z,99328.00
2018-06-19T14:23:33.858Z,99323.00
2018-06-19T14:26:03.337Z,99322.00
2018-06-19T14:28:33.912Z,99323.00
2018-06-19T14:31:03.755Z,99325.00
2018-06-19T14:33:33.488Z,99321.00
2018-06-19T14:36:03.667Z,99321.00
2018-06-19T14:38:32.869Z,99325.00
2018-06-19T14:41:05.084Z,99320.00
2018-06-19T14:43:35.808Z,99325.00
2018-06-19T14:46:05.877Z,99333.00
2018-06-19T14:48:37.485Z,99327.00
2018-06-19T14:51:08.191Z,99323.00
2018-06-19T14:53:38.260Z,99322.00
2018-06-19T14:56:08.910Z,99322.00
2018-06-19T14:58:38.722Z,99325.00
2018-06-19T15:01:08.641Z,99322.00
2018-06-19T15:03:37.804Z,99322.00
2018-06-19T15:06:07.617Z,99321.00
2018-06-19T15:08:37.632Z,99324.00
2018-06-19T15:11:07.837Z,99326.00
2018-06-19T15:13:37.911Z,99331.00
2018-06-19T15:16:08.726Z,99315.00
2018-06-19T15:18:38.606Z,99325.00
2018-06-19T15:21:08.785Z,99329.00
2018-06-19T15:23:38.566Z,99319.00
2018-06-19T15:26:08.513Z,99318.00
2018-06-19T15:28:38.796Z,99316.00
2018-06-19T15:31:07.949Z,99324.00
2018-06-19T15:33:37.804Z,99321.00
2018-06-19T15:36:07.668Z,99317.00
2018-06-19T15:38:36.823Z,99318.00
2018-06-19T15:41:06.680Z,99319.00
2018-06-19T15:43:36.571Z,99322.00
2018-06-19T15:46:06.655Z,99320.00
2018-06-19T15:48:36.658Z,99323.00
2018-06-19T15:51:06.793Z,99319.00
2018-06-19T15:53:36.710Z,99319.00
2018-06-19T15:56:06.664Z,99320.00
2018-06-19T15:58:37.212Z,99313.00
2018-06-19T16:01:06.300Z,99316.00
2018-06-19T16:03:35.745Z,99319.00
2018-06-19T16:06:05.524Z,99316.00
2018-06-19T16:08:34.620Z,99316.00
2018-06-19T16:11:04.371Z,99323.00
2018-06-19T16:13:34.114Z,99322.00
2018-06-19T16:16:03.993Z,99317.00
2018-06-19T16:18:33.846Z,99321.00
2018-06-19T16:21:02.992Z,99323.00
2018-06-19T16:23:33.749Z,99329.00
2018-06-19T16:26:02.977Z,99322.00
2018-06-19T16:28:32.860Z,99323.00
2018-06-19T16:31:01.996Z,99321.00
2018-06-19T16:33:32.160Z,99323.00
2018-06-19T16:36:03.088Z,99322.00
2018-06-19T16:38:32.264Z,99316.00
2018-06-19T16:41:01.392Z,99317.00
2018-06-19T16:43:30.510Z,99315.00
2018-06-19T16:46:00.465Z,99315.00
2018-06-19T16:48:29.633Z,99313.00
2018-06-19T16:50:59.617Z,99312.00
2018-06-19T16:53:29.449Z,99316.00
2018-06-19T16:55:58.612Z,99316.00
2018-06-19T16:58:27.768Z,99314.00
2018-06-19T17:00:57.173Z,99315.00
2018-06-19T17:03:26.388Z,99310.00
2018-06-19T17:05:56.532Z,99311.00
2018-06-19T17:08:26.500Z,99312.00
2018-06-19T17:10:55.621Z,99307.00
2018-06-19T17:13:24.778Z,99309.00
2018-06-19T17:15:54.756Z,99303.00
2018-06-19T17:18:23.952Z,99310.00
2018-06-19T17:20:53.858Z,99304.00
2018-06-19T17:23:23.818Z,99305.00
2018-06-19T17:25:53.712Z,99298.00
2018-06-19T17:28:22.816Z,99296.00
2018-06-19T17:30:52.609Z,99298.00
2018-06-19T17:33:22.785Z,99296.00
2018-06-19T17:35:52.752Z,99298.00
2018-06-19T17:38:21.896Z,99299.00
2018-06-19T17:40:51.054Z,99294.00
2018-06-19T17:43:20.817Z,99294.00
2018-06-19T17:45:50.057Z,99292.00
2018-06-19T17:48:20.760Z,99288.00
2018-06-19T17:50:50.134Z,99287.00
2018-06-19T17:53:19.236Z,99291.00
2018-06-19T17:55:48.669Z,99289.00
2018-06-19T17:58:18.547Z,99286.00
2018-06-19T18:00:48.620Z,99292.00
2018-06-19T18:03:18.452Z,99289.00
2018-06-19T18:05:47.928Z,99290.00
2018-06-19T18:08:17.100Z,99286.00
2018-06-19T18:10:46.264Z,99286.00
2018-06-19T18:13:16.396Z,99287.00
2018-06-19T18:15:45.600Z,99294.00
2018-06-19T18:18:15.894Z,99290.00
2018-06-19T18:20:44.964Z,99295.00
2018-06-19T18:23:14.056Z,99291.00
2018-06-19T18:25:43.472Z,99290.00
2018-06-19T18:28:12.580Z,99287.00
2018-06-19T18:30:42.273Z,99287.00
2018-06-19T18:33:11.431Z,99286.00
2018-06-19T18:35:40.529Z,99282.00
2018-06-19T18:38:09.732Z,99290.00
2018-06-19T18:40:38.820Z,99290.00
2018-06-19T18:43:08.048Z,99287.00
2018-06-19T18:45:38.176Z,99284.00
2018-06-19T18:48:07.293Z,99285.00
2018-06-19T18:50:36.462Z,99287.00
2018-06-19T18:53:06.357Z,99290.00
2018-06-19T18:55:35.532Z,99291.00
2018-06-19T18:58:04.680Z,99289.00
2018-06-19T19:00:34.601Z,99287.00
2018-06-19T19:03:03.794Z,99285.00
2018-06-19T19:05:32.989Z,99285.00
2018-06-19T19:08:02.071Z,99286.00
2018-06-19T19:10:36.468Z,99279.00
2018-06-19T19:13:05.976Z,99275.00
2018-06-19T19:15:41.244Z,99277.00
2018-06-19T19:18:15.468Z,99282.00
2018-06-19T19:20:45.104Z,99279.00
2018-06-19T19:23:14.336Z,99284.00
2018-06-19T19:25:43.577Z,99292.00
2018-06-19T19:28:18.296Z,99294.00
2018-06-19T19:30:47.867Z,99296.00
2018-06-19T19:33:16.988Z,99301.00
2018-06-19T19:35:46.401Z,99300.00
2018-06-19T19:38:20.704Z,99304.00
2018-06-19T19:40:50.358Z,99299.00
2018-06-19T19:43:20.676Z,99301.00
2018-06-19T19:45:49.836Z,99301.00
2018-06-19T19:48:24.357Z,99297.00
2018-06-19T19:50:53.480Z,99299.00
2018-06-19T19:53:23.592Z,99300.00
2018-06-19T19:55:58.085Z,99305.00
2018-06-19T19:58:34.300Z,99309.00
2018-06-19T20:01:03.445Z,99310.00
2018-06-19T20:03:32.580Z,99314.00
2018-06-19T20:06:02.022Z,99318.00
2018-06-19T20:08:31.180Z,99325.00
2018-06-19T20:11:00.236Z,99325.00
2018-06-19T20:13:30.387Z,99330.00
2018-06-19T20:16:00.496Z,99325.00
2018-06-19T20:18:29.642Z,99333.00
2018-06-19T20:20:58.784Z,99335.00
2018-06-19T20:23:28.880Z,99334.00
2018-06-19T20:25:58.844Z,99335.00
2018-06-19T20:28:28.000Z,99335.00
2018-06-19T20:30:57.140Z,99330.00
2018-06-19T20:33:26.365Z,99332.00
2018-06-19T20:35:55.516Z,99334.00
2018-06-19T20:38:24.704Z,99340.00
2018-06-19T20:40:54.901Z,99339.00
2018-06-19T20:43:24.180Z,99336.00
2018-06-19T20:45:53.305Z,99338.00
2018-06-19T20:48:22.525Z,99335.00
2018-06-19T20:50:52.645Z,99336.00
2018-06-19T20:53:21.797Z,99335.00
2018-06-19T20:55:50.988Z,99339.00
2018-06-19T20:58:20.537Z,99342.00
2018-06-19T21:00:49.688Z,99343.00
2018-06-19T21:03:18.916Z,99345.00
2018-06-19T21:05:48.600Z,99346.00
2018-06-19T21:08:18.164Z,99352.00
2018-06-19T21:10:47.229Z,99345.00
2018-06-19T21:13:16.556Z,99344.00
2018-06-19T21:15:45.734Z,99346.00
2018-06-19T21:18:14.948Z,99356.00
2018-06-19T21:20:45.069Z,99349.00
2018-06-19T21:23:14.213Z,99354.00
2018-06-19T21:25:43.340Z,99355.00
2018-06-19T21:28:12.761Z,99356.00
2018-06-19T21:30:41.840Z,99354.00
2018-06-19T21:33:11.892Z,99360.00
2018-06-19T21:35:41.886Z,99363.00
2018-06-19T21:38:11.048Z,99363.00
2018-06-19T21:40:40.170Z,99362.00
2018-06-19T21:43:09.572Z,99362.00
2018-06-19T21:45:38.685Z,99360.00
2018-06-19T21:48:07.901Z,99364.00
2018-06-19T21:50:37.912Z,99362.00
2018-06-19T21:53:07.083Z,99362.00
2018-06-19T21:55:36.184Z,99364.00
2018-06-19T21:58:05.397Z,99367.00
2018-06-19T22:00:35.380Z,99367.00
2018-06-19T22:03:04.476Z,99372.00
2018-06-19T22:05:34.272Z,99375.00
2018-06-19T22:08:03.409Z,99372.00
2018-06-19T22:10:32.496Z,99371.00
2018-06-19T22:13:01.806Z,99371.00
2018-06-19T22:15:30.861Z,99373.00
2018-06-19T22:18:00.073Z,99374.00
2018-06-19T22:20:29.816Z,99377.00
2018-06-19T22:22:58.880Z,99374.00
2018-06-19T22:25:28.050Z,99373.00
2018-06-19T22:27:57.168Z,99374.00
2018-06-19T22:30:26.913Z,99373.00
2018-06-19T22:32:56.068Z,99372.00
2018-06-19T22:35:25.943Z,99370.00
2018-06-19T22:37:56.190Z,99367.00
2018-06-19T22:40:25.337Z,99370.00
2018-06-19T22:42:54.404Z,99366.00
2018-06-19T22:45:23.580Z,99366.00
2018-06-19T22:47:52.672Z,99367.00
2018-06-19T22:50:22.748Z,99367.00
2018-06-19T22:52:51.941Z,99366.00
2018-06-19T22:55:21.008Z,99360.00
2018-06-19T22:57:50.392Z,99364.00
2018-06-19T23:00:21.097Z,99360.00
2018-06-19T23:02:52.449Z,99361.00
2018-06-19T23:05:21.584Z,99364.00
2018-06-19T23:07:50.719Z,99366.00
2018-06-19T23:10:20.085Z,99369.00
2018-06-19T23:12:49.228Z,99368.00
2018-06-19T23:15:18.398Z,99365.00
2018-06-19T23:17:47.959Z,99370.00
2018-06-19T23:20:17.085Z,99372.00
2018-06-19T23:22:49.329Z,99371.00
2018-06-19T23:25:18.844Z,99368.00
2018-06-19T23:27:47.988Z,99367.00
2018-06-19T23:30:18.218Z,99370.00
2018-06-19T23:32:47.483Z,99369.00
2018-06-19T23:35:16.612Z,99371.00
2018-06-19T23:37:46.380Z,99373.00
2018-06-19T23:40:15.515Z,99367.00
2018-06-19T23:42:44.613Z,99368.00
2018-06-19T23:45:13.876Z,99368.00
2018-06-19T23:47:43.041Z,99368.00
2018-06-19T23:50:12.269Z,99368.00
2018-06-19T23:52:42.280Z,99361.00
2018-06-19T23:55:11.480Z,99368.00
2018-06-19T23:57:40.596Z,99369.00
